Flight Track Log - Related Links

Times and Time Zones

All times are in EDT time to prevent confusion due to time zone crossing. See the N402VN flight status page for this flight to view local times or setup timezone preferences in your user account.

Time Position Orientation Groundspeed Altitude Reporting Facility
EDT Latitude Longitude Course Direction KTS MPH feet Rate Location/Type
Tue 08:12:24 AM 26.0783 -80.1692 290° West 133 153 600  Level Miami Center
Tue 08:13:07 AM 26.0861 -80.1925 290° West 119 137 1,200 857 Climbing Miami Center
Tue 08:14:02 AM 26.1000 -80.2231 297° West 117 135 2,000 291 Climbing Miami Center
Tue 08:16:00 AM 26.1745 -80.1764 29° Northeast  Level FlightAware Approximate
Tue 08:23:00 AM 26.4737 -80.1195 10° North  Level FlightAware Approximate
Tue 08:24:00 AM 26.5166 -80.1115 10° North  Level FlightAware Approximate
Tue 08:25:00 AM 26.5594 -80.1035 10° North  Level FlightAware Approximate
Tue 08:26:00 AM 26.6022 -80.0954 10° North  Level FlightAware Approximate
Tue 08:27:00 AM 26.6451 -80.0874 10° North  Level FlightAware Approximate
Tue 08:28:00 AM 26.6872 -80.0906 343° North  Level FlightAware Approximate
Tue 08:29:00 AM 26.7287 -80.1052 343° North  Level FlightAware Approximate
Tue 08:30:00 AM 26.7701 -80.1198 343° North  Level FlightAware Approximate
Tue 08:31:00 AM 26.8116 -80.1344 343° North  Level FlightAware Approximate
Tue 08:32:00 AM 26.8530 -80.1490 343° North  Level FlightAware Approximate
Tue 08:33:00 AM 26.8944 -80.1637 343° North  Level FlightAware Approximate
Tue 08:33:22 AM 26.9014 -80.2528 338° Northwest 151 174 7,100  Level Miami Center
Tue 08:34:00 AM 26.9359 -80.1783 342° North  Level FlightAware Approximate
Tue 08:34:22 AM 26.9369 -80.2517 North 151 174 7,000  Level Miami Center
Tue 08:35:00 AM 26.9765 -80.1954 338° Northwest  Level FlightAware Approximate
Tue 08:35:22 AM 26.9767 -80.2528 359° North 175 201 7,000  Level Miami Center
Tue 08:36:00 AM 27.0168 -80.2137 338° Northwest  Level FlightAware Approximate
Tue 08:36:22 AM 27.0247 -80.2542 359° North 170 196 7,100  Level Miami Center
Tue 08:37:00 AM 27.0571 -80.2320 338° Northwest  Level FlightAware Approximate
Tue 08:37:22 AM 27.0664 -80.2553 359° North 157 181 7,000  Level Miami Center
Tue 08:38:00 AM 27.0974 -80.2503 338° Northwest  Level FlightAware Approximate
Tue 08:38:22 AM 27.1103 -80.2542 North 157 181 7,000  Level Miami Center
Tue 08:39:22 AM 27.1431 -80.2739 332° Northwest 146 168 7,000  Level Miami Center
Tue 08:40:22 AM 27.1867 -80.2914 340° North 146 168 7,000  Level Miami Center
Tue 08:41:22 AM 27.2239 -80.3067 340° North 146 168 7,000  Level Miami Center
Tue 08:42:22 AM 27.2631 -80.3219 341° North 146 168 7,000  Level Miami Center
Tue 08:43:22 AM 27.2983 -80.3369 339° North 146 168 7,000  Level Miami Center
Tue 08:44:22 AM 27.3397 -80.3544 339° North 146 168 7,000  Level Miami Center
Tue 08:45:22 AM 27.3831 -80.3722 340° North 146 168 7,000  Level Miami Center
Tue 08:46:22 AM 27.4222 -80.3897 338° Northwest 146 168 7,000  Level Miami Center
Tue 08:47:22 AM 27.4594 -80.4050 340° North 146 168 7,000  Level Miami Center
Tue 08:48:22 AM 27.4947 -80.4178 342° North 146 168 7,000  Level Miami Center
Tue 08:49:22 AM 27.5361 -80.4356 339° North 146 168 7,000  Level Miami Center
Tue 08:50:22 AM 27.5753 -80.4483 344° North 146 168 7,000  Level Miami Center
Tue 08:51:22 AM 27.6125 -80.4658 337° Northwest 146 168 7,000  Level Miami Center
Tue 08:52:22 AM 27.6475 -80.4789 342° North 146 168 7,000  Level Miami Center
Tue 08:53:22 AM 27.6847 -80.4939 340° North 146 168 7,000  Level Miami Center
Tue 08:54:22 AM 27.7283 -80.5072 345° North 146 168 7,000  Level Miami Center
Tue 08:55:22 AM 27.7678 -80.5156 349° North 146 168 7,000  Level Miami Center
Tue 08:56:22 AM 27.8069 -80.5308 341° North 146 168 7,000  Level Miami Center
Tue 08:58:09 AM 27.8833 -80.5500 347° North 151 174 7,000  Level Orlando TRACON
Tue 08:59:03 AM 27.9167 -80.5667 336° Northwest 137 158 7,000  Level Orlando TRACON
Tue 09:00:15 AM 27.9500 -80.5833 336° Northwest 138 159 7,000 47 Level Orlando TRACON
Tue 09:01:10 AM 27.9833 -80.5833 360° North 138 159 7,100  Climbing Orlando TRACON
Tue 09:02:10 AM 28.0167 -80.6000 336° Northwest 140 161 7,000 -48 Descending Orlando TRACON
Tue 09:03:16 AM 28.0667 -80.6167 344° North 142 163 7,000  Level Orlando TRACON
Tue 09:04:16 AM 28.1000 -80.6333 336° Northwest 141 162 7,000  Level Orlando TRACON
Tue 09:05:16 AM 28.1500 -80.6333 360° North 141 162 7,000  Level Orlando TRACON
Tue 09:06:17 AM 28.1833 -80.6500 336° Northwest 140 161 7,000  Level Orlando TRACON
Tue 09:07:16 AM 28.2167 -80.6667 336° Northwest 138 159 7,000  Level Orlando TRACON
Tue 09:08:17 AM 28.2500 -80.6833 336° Northwest 137 158 7,000  Level Orlando TRACON
Tue 09:09:17 AM 28.2833 -80.7000 336° Northwest 135 155 7,000  Level Orlando TRACON
Tue 09:10:17 AM 28.3167 -80.7167 336° Northwest 137 158 7,000  Level Orlando TRACON
Tue 09:11:17 AM 28.3500 -80.7333 336° Northwest 136 157 7,000  Level Orlando TRACON
Tue 09:12:17 AM 28.3833 -80.7500 336° Northwest 136 157 7,000  Level Orlando TRACON
Tue 09:13:17 AM 28.4333 -80.7667 344° North 138 159 7,000  Level Orlando TRACON
Tue 09:14:24 AM 28.4667 -80.7833 336° Northwest 137 158 7,000  Level Orlando TRACON
Tue 09:15:18 AM 28.5000 -80.7833 360° North 135 155 7,000  Level Orlando TRACON
Tue 09:16:18 AM 28.5333 -80.8000 336° Northwest 134 154 7,000  Level Orlando TRACON
Tue 09:17:19 AM 28.5667 -80.8167 336° Northwest 133 153 7,000  Level Orlando TRACON
Tue 09:18:19 AM 28.6000 -80.8333 336° Northwest 136 157 7,000  Level Orlando TRACON
Tue 09:19:19 AM 28.6333 -80.8500 336° Northwest 134 154 7,000  Level Orlando TRACON
Tue 09:20:19 AM 28.6833 -80.8667 344° North 134 154 7,000  Level Orlando TRACON
Tue 09:21:19 AM 28.7167 -80.8833 336° Northwest 133 153 7,000  Level Orlando TRACON
Tue 09:22:53 AM 28.7647 -80.9008 342° North 135 155 7,000  Level Jacksonville Center
Tue 09:23:42 AM 28.7919 -80.9144 336° Northwest 136 157 7,000  Level Jacksonville Center
Tue 09:24:55 AM 28.8383 -80.9300 344° North 136 157 7,000  Level Jacksonville Center
Tue 09:25:50 AM 28.8717 -80.9414 343° North 136 157 7,000  Level Jacksonville Center
Tue 09:26:45 AM 28.9011 -80.9550 338° Northwest 136 157 7,000  Level Jacksonville Center
Tue 09:27:46 AM 28.9411 -80.9731 338° Northwest 135 155 7,000  Level Jacksonville Center
Tue 09:28:46 AM 28.9747 -80.9867 340° North 134 154 7,000  Level Jacksonville Center
Tue 09:29:47 AM 29.0103 -80.9978 345° North 134 154 7,000  Level Jacksonville Center
Tue 09:30:54 AM 29.0522 -81.0114 344° North 137 158 7,000  Level Jacksonville Center
Tue 09:31:55 AM 29.0900 -81.0153 355° North 136 157 7,000  Level Jacksonville Center
Tue 09:32:56 AM 29.1297 -81.0194 355° North 137 158 7,000  Level Jacksonville Center
Tue 09:33:57 AM 29.1653 -81.0236 354° North 138 159 7,000  Level Jacksonville Center
Tue 09:34:58 AM 29.2028 -81.0300 352° North 138 159 7,000  Level Jacksonville Center
Tue 09:35:59 AM 29.2447 -81.0339 355° North 138 159 7,000  Level Jacksonville Center
Tue 09:36:48 AM 29.2739 -81.0381 353° North 138 159 7,000  Level Jacksonville Center
Tue 09:37:49 AM 29.3117 -81.0422 355° North 136 157 7,000  Level Jacksonville Center
Tue 09:39:01 AM 29.3575 -81.0508 351° North 140 161 7,000  Level Jacksonville Center
Tue 09:39:51 AM 29.3911 -81.0525 358° North 140 161 7,000  Level Jacksonville Center
Tue 09:40:51 AM 29.4286 -81.0567 354° North 141 162 7,000  Level Jacksonville Center
Tue 09:41:58 AM 29.4747 -81.0631 353° North 141 162 7,000  Level Jacksonville Center
Tue 09:42:59 AM 29.5144 -81.0669 355° North 141 162 7,000  Level Jacksonville Center
Tue 09:43:54 AM 29.5500 -81.0711 354° North 141 162 7,000  Level Jacksonville Center
Tue 09:44:54 AM 29.5875 -81.0775 352° North 144 166 7,000  Level Jacksonville Center
Tue 09:45:55 AM 29.6275 -81.0839 352° North 144 166 7,000  Level Jacksonville Center
Tue 09:46:18 AM 29.6461 -81.0836 North 144 166 7,000  Level Jacksonville Center
Tue 09:47:13 AM 29.6817 -81.0878 354° North 142 163 7,000  Level Jacksonville Center
Tue 09:48:14 AM 29.7214 -81.0917 355° North 145 167 7,000 47 Level Jacksonville Center
Tue 09:49:21 AM 29.7633 -81.0981 352° North 141 162 7,100 47 Climbing Jacksonville Center
Tue 09:50:22 AM 29.8072 -81.1022 355° North 143 165 7,100  Level Jacksonville Center
Tue 09:51:23 AM 29.8447 -81.1086 352° North 140 161 7,100  Level Jacksonville Center
Tue 09:52:24 AM 29.8825 -81.1128 355° North 139 160 7,100  Level Jacksonville Center
Tue 09:53:25 AM 29.9222 -81.1167 355° North 136 157 7,100  Level Jacksonville Center
Tue 09:54:26 AM 29.9619 -81.1183 358° North 143 165 7,100  Level Jacksonville Center
Tue 09:55:27 AM 30.0036 -81.1178 North 142 163 7,100  Level Jacksonville Center
Tue 09:56:34 AM 30.0453 -81.1194 358° North 140 161 7,100  Level Jacksonville Center
Tue 09:57:35 AM 30.0831 -81.1186 North 138 159 7,100  Level Jacksonville Center
Tue 09:58:36 AM 30.1269 -81.1228 355° North 142 163 7,100  Level Jacksonville Center
Tue 09:59:32 AM 30.1625 -81.1244 358° North 141 162 7,100  Level Jacksonville Center
Tue 10:00:44 AM 30.2144 -81.1233 North 146 168 7,100  Level Jacksonville Center
Tue 10:01:39 AM 30.2481 -81.1253 357° North 144 166 7,100  Level Jacksonville Center
Tue 10:02:40 AM 30.2897 -81.1244 North 147 169 7,100  Level Jacksonville Center
Tue 10:03:41 AM 30.3317 -81.1261 358° North 143 165 7,100  Level Jacksonville Center
Tue 10:04:36 AM 30.3692 -81.1278 358° North 144 166 7,100  Level Jacksonville Center
Tue 10:05:26 AM 30.4006 -81.1272 North 143 165 7,100  Level Jacksonville Center
Tue 10:06:26 AM 30.4422 -81.1314 355° North 143 165 7,100  Level Jacksonville Center
Tue 10:07:26 AM 30.4819 -81.1306 North 148 170 7,100  Level Jacksonville Center
Tue 10:07:45 AM 30.4944 -81.1278 11° North 144 166 7,100  Level Jacksonville Center
Tue 10:08:26 AM 30.5194 -81.1322 351° North 149 171 7,100  Level Jacksonville Center
Tue 10:09:26 AM 30.5614 -81.1339 358° North 149 171 7,100  Level Jacksonville Center
Tue 10:10:26 AM 30.6008 -81.1331 North 149 171 7,100  Level Jacksonville Center
Tue 10:11:26 AM 30.6406 -81.1347 358° North 139 160 7,100  Level Jacksonville Center
Tue 10:12:26 AM 30.6783 -81.1367 357° North 139 160 7,100  Level Jacksonville Center
Tue 10:13:26 AM 30.7200 -81.1383 358° North 139 160 7,100  Level Jacksonville Center
Tue 10:14:26 AM 30.7597 -81.1375 North 139 160 7,100  Level Jacksonville Center
Tue 10:15:26 AM 30.7972 -81.1367 North 139 160 7,100  Level Jacksonville Center
Tue 10:16:26 AM 30.8411 -81.1408 355° North 144 166 7,100  Level Jacksonville Center
Tue 10:17:26 AM 30.8786 -81.1400 North 144 166 7,100  Level Jacksonville Center
Tue 10:18:26 AM 30.9206 -81.1417 358° North 138 159 7,100  Level Jacksonville Center
Tue 10:19:26 AM 30.9603 -81.1433 358° North 138 159 7,100  Level Jacksonville Center
Tue 10:20:26 AM 31.0019 -81.1428 North 143 165 7,100  Level Jacksonville Center
Tue 10:21:26 AM 31.0439 -81.1467 355° North 143 165 7,100  Level Jacksonville Center
Tue 10:22:26 AM 31.0875 -81.1458 North 143 165 7,100  Level Jacksonville Center
Tue 10:23:26 AM 31.1253 -81.1428 North 143 165 7,100  Level Jacksonville Center
Tue 10:24:26 AM 31.1689 -81.1444 358° North 148 170 7,100  Level Jacksonville Center
Tue 10:25:26 AM 31.2128 -81.1436 North 148 170 7,100  Level Jacksonville Center
Tue 10:26:26 AM 31.2544 -81.1258 20° North 148 170 7,100  Level Jacksonville Center
Tue 10:27:26 AM 31.2981 -81.1081 19° North 148 170 7,100  Level Jacksonville Center
Tue 10:28:26 AM 31.3353 -81.0903 22° Northeast 153 176 7,100  Level Jacksonville Center
Tue 10:29:26 AM 31.3747 -81.0750 18° North 153 176 7,100  Level Jacksonville Center
Tue 10:30:26 AM 31.4225 -81.0519 22° Northeast 148 170 7,100  Level Jacksonville Center
Tue 10:31:26 AM 31.4639 -81.0342 20° North 148 170 7,100  Level Jacksonville Center
Tue 10:32:26 AM 31.5056 -81.0164 20° North 148 170 7,100  Level Jacksonville Center
Tue 10:33:26 AM 31.5450 -81.0033 16° North 148 170 7,100  Level Jacksonville Center
Tue 10:34:26 AM 31.5925 -80.9803 22° Northeast 148 170 7,100  Level Jacksonville Center
Tue 10:35:26 AM 31.6342 -80.9625 20° North 148 170 7,100  Level Jacksonville Center
Tue 10:36:26 AM 31.6756 -80.9419 23° Northeast 155 178 7,100  Level Jacksonville Center
Tue 10:37:26 AM 31.7150 -80.9267 18° North 155 178 7,100  Level Jacksonville Center
Tue 10:38:26 AM 31.7586 -80.9086 19° North 155 178 7,100  Level Jacksonville Center
Tue 10:40:00 AM 31.8162 -80.8763 25° Northeast  Level FlightAware Approximate
Tue 10:47:00 AM 32.0508 -80.6856 35° Northeast  Level FlightAware Approximate
Tue 10:48:00 AM 32.0841 -80.6579 35° Northeast  Level FlightAware Approximate
Tue 10:49:00 AM 32.1173 -80.6301 35° Northeast  Level FlightAware Approximate
Tue 10:50:00 AM 32.1536 -80.6138 33° Northeast  Level FlightAware Approximate
Tue 10:51:00 AM 32.1876 -80.5874 33° Northeast  Level FlightAware Approximate
Tue 10:52:00 AM 32.2216 -80.5609 33° Northeast  Level FlightAware Approximate
Tue 10:53:00 AM 32.2556 -80.5344 33° Northeast  Level FlightAware Approximate
Tue 10:54:00 AM 32.2896 -80.5078 33° Northeast  Level FlightAware Approximate
Tue 10:55:00 AM 32.3235 -80.4813 33° Northeast  Level FlightAware Approximate
Tue 10:56:00 AM 32.3575 -80.4547 33° Northeast  Level FlightAware Approximate
Tue 10:57:00 AM 32.3914 -80.4281 33° Northeast  Level FlightAware Approximate
Tue 10:58:00 AM 32.4254 -80.4015 33° Northeast  Level FlightAware Approximate
Tue 10:59:00 AM 32.4593 -80.3749 34° Northeast  Level FlightAware Approximate
Tue 11:00:00 AM 32.4932 -80.3482 34° Northeast  Level FlightAware Approximate
Tue 11:01:00 AM 32.5271 -80.3215 34° Northeast  Level FlightAware Approximate
Tue 11:02:00 AM 32.5498 -80.2882 31° Northeast  Level FlightAware Approximate
Tue 11:03:00 AM 32.5847 -80.2633 31° Northeast  Level FlightAware Approximate
Tue 11:04:00 AM 32.6196 -80.2384 31° Northeast  Level FlightAware Approximate
Tue 11:05:00 AM 32.6545 -80.2137 29° Northeast  Level FlightAware Approximate
Tue 11:06:00 AM 32.6900 -80.1900 29° Northeast  Level FlightAware Approximate
Tue 11:07:00 AM 32.7224 -80.1609 40° Northeast  Level FlightAware Approximate
Tue 11:08:00 AM 32.7539 -80.1304 32° Northeast  Level FlightAware Approximate
Tue 11:09:00 AM 32.7883 -80.1046 32° Northeast  Level FlightAware Approximate
Tue 11:10:00 AM 32.8228 -80.0788 32° Northeast  Level FlightAware Approximate
Tue 11:11:00 AM 32.8572 -80.0529 32° Northeast  Level FlightAware Approximate
Tue 11:12:00 AM 32.8900 -80.0247 47° Northeast  Level FlightAware Approximate
Tue 11:13:00 AM 32.9177 -79.9892 47° Northeast  Level FlightAware Approximate
Tue 11:14:00 AM 32.9454 -79.9536 47° Northeast  Level FlightAware Approximate
Tue 11:15:00 AM 32.9730 -79.9180 47° Northeast  Level FlightAware Approximate
Tue 11:16:00 AM 33.0006 -79.8824 51° Northeast  Level FlightAware Approximate
Tue 11:17:00 AM 33.0260 -79.8444 51° Northeast  Level FlightAware Approximate
Tue 11:18:00 AM 33.0519 -79.8069 50° Northeast  Level FlightAware Approximate
Tue 11:19:00 AM 33.0780 -79.7697 50° Northeast  Level FlightAware Approximate
Tue 11:20:00 AM 33.1041 -79.7324 50° Northeast  Level FlightAware Approximate
Tue 11:21:00 AM 33.1302 -79.6951 50° Northeast  Level FlightAware Approximate
Tue 11:22:00 AM 33.1563 -79.6578 50° Northeast  Level FlightAware Approximate
Tue 11:23:00 AM 33.1824 -79.6205 50° Northeast  Level FlightAware Approximate
Tue 11:24:00 AM 33.2085 -79.5832 50° Northeast  Level FlightAware Approximate
Tue 11:25:00 AM 33.2346 -79.5458 50° Northeast  Level FlightAware Approximate
Tue 11:26:00 AM 33.2607 -79.5085 50° Northeast  Level FlightAware Approximate
Tue 11:27:00 AM 33.2863 -79.4706 51° Northeast  Level FlightAware Approximate
Tue 11:28:00 AM 33.3117 -79.4325 51° Northeast  Level FlightAware Approximate
Tue 11:29:00 AM 33.3371 -79.3944 51° Northeast  Level FlightAware Approximate
Tue 11:30:00 AM 33.3624 -79.3563 51° Northeast  Level FlightAware Approximate
Tue 11:31:00 AM 33.3845 -79.3155 40° Northeast  Level FlightAware Approximate
Tue 11:32:00 AM 33.4128 -79.2808 51° Northeast  Level FlightAware Approximate
Tue 11:33:00 AM 33.4383 -79.2429 50° Northeast  Level FlightAware Approximate
Tue 11:34:00 AM 33.4645 -79.2055 50° Northeast  Level FlightAware Approximate
Tue 11:35:00 AM 33.4907 -79.1682 50° Northeast  Level FlightAware Approximate
Tue 11:36:00 AM 33.5169 -79.1308 50° Northeast  Level FlightAware Approximate
Tue 11:37:00 AM 33.5430 -79.0933 50° Northeast  Level FlightAware Approximate
Tue 11:38:00 AM 33.5707 -79.0575 46° Northeast  Level FlightAware Approximate
Tue 11:39:00 AM 33.5989 -79.0223 46° Northeast  Level FlightAware Approximate

Login

Don't have an account? Register now (free) for customized features, flight alerts, and more!